Columbus Air Force Base Columbus US
ICAO: KCBM
IATA: CBM
Category: Large
Scheduled Services: No

Elevation: 219 ft
TransAlt. 18000 ft.

Airport Communications:
APP:126.075
ATIS:115.2
CLNC DEL:33.86
DEP:132.05
GND:121.9
SOF:25.21
PMSV METRO:34.46
PTD:37.6
TWR:128.65

KCBM Zoom In..

Runways:

(A) RW 13C length 12004 ft width 300 ft
ILS 109.30 / hdg 135

(B) RW 13L length 8001 ft width 150 ft
---- / hdg 135

(C) RW 13R length 6315 ft width 175 ft
---- / hdg 135

(D) RW 31C length 12004 ft width 300 ft
ILS 108.70 / hdg 315

(E) RW 31L length 6315 ft width 175 ft
---- / hdg 315

(F) RW 31R length 8001 ft width 150 ft
---- / hdg 315

Location; KCBM
Day. 21 / Time. 23.56 Zulu
* Altimeter: 30.06
* Temperature: 14° c. 57.2°f.
* Wind from: 150° Speed 07 kn.
Dewpoint: 08° c.
Visibility: 10 Statute Miles.
Clouds: Clear (automated report).

KCBM 212356Z AUTO 15007KT 10SM CLR 14/08 A3006 RMK AO2 SLP182 T01410076 10222 20140 55001 TSNO $


Wind From 150°
Speed 07 kn.

jpsM music video
CHECK IT OUT

jpsM - It Moves..

 
jpsmedia.com for Web Design  worldairports.se 2018   terms of use